Main page
METAR-TAF:

METAR-TAF

Airports :

Waterford, Ireland

Waterford Airport

latitude: 52-11-14N, longitude: 7-05-13W, elevation: 36 m

Current weather observation

The report was made 17 minutes ago, at 07:00 UTC
Wind 15 kt from the Southeast
Temperature 15°C
Humidity 82%
Pressure 1013 hPa
Visibility 10 km or more
no clouds below 1500 m and no cumulonimbus

METAR: EIWF 260700Z 14015KT CAVOK 15/12 Q1013

Time: 08:17 (07:17 UTC)

Forecast

The report was made 2 hours and 17 minutes ago, at 05:00 UTC
Forecast valid from 26 at 06 UTC to 26 at 15 UTC
Wind 13 kt from the Southeast
Visibility 10 km or more
no clouds below 1500 m and no cumulonimbus

TAF: EIWF 260500Z 2606/2615 13013KT CAVOK

Weather observations and forecasts of more than 4000 airports (METAR and TAF reports).

The available stations are represented by yellow and red dots on the map.

Hover mouse over dot to see the name of the station.

Then click to see weather observations and forecasts.

To change the map : click on the green buttons with a black cross to zoom in, on the green button with a dash to zoom out, or on the green arrows for adjacent maps.


METAR-TAF: